Time;durP1;ratioP1;P1;durP2;ratioP2;P2;SDS_P1;SDS_P2;PMS_P1;PMS_P2;Temp;Humidity;BMP_temperature;BMP_pressure;BME280_temperature;BME280_humidity;BME280_pressure;Samples;Min_cycle;Max_cycle;Signal;HPM_P1;HPM_P2
2021/12/16 00:09:10;;;;;;;40.80;7.93;;;7.60;99.90;;;;;;4989618;28;20057;-65
2021/12/16 00:33:31;;;;;;;33.15;6.63;;;7.60;99.90;;;;;;5017593;28;20048;-64
2021/12/16 00:35:57;;;;;;;28.52;6.00;;;7.60;99.90;;;;;;5018931;28;20111;-65
2021/12/16 00:38:23;;;;;;;24.70;5.70;;;7.60;99.90;;;;;;5018716;28;20065;-64
2021/12/16 00:40:48;;;;;;;20.45;6.35;;;7.60;99.90;;;;;;5018168;28;20038;-65
2021/12/16 00:43:30;;;;;;;27.60;6.35;;;7.60;99.90;;;;;;5020367;28;20040;-64
2021/12/16 00:48:25;;;;;;;23.92;7.40;;;7.60;99.90;;;;;;5018481;28;20034;-65
2021/12/16 00:56:06;;;;;;;24.42;7.28;;;7.50;99.90;;;;;;5017503;28;20397;-64
2021/12/16 00:58:40;;;;;;;25.48;7.90;;;7.50;99.90;;;;;;5001969;28;20053;-64
2021/12/16 01:01:17;;;;;;;20.23;7.75;;;7.50;99.90;;;;;;5017966;28;20034;-65
2021/12/16 01:03:59;;;;;;;19.17;6.93;;;7.60;99.90;;;;;;5017929;28;20113;-68
2021/12/16 01:49:56;;;;;;;21.55;6.10;;;8.20;99.90;;;;;;5020617;28;20037;-65
2021/12/16 01:53:05;;;;;;;21.27;6.13;;;8.20;99.90;;;;;;5020854;28;20034;-66
2021/12/16 01:55:30;;;;;;;24.65;6.72;;;8.20;99.90;;;;;;5018904;28;20068;-66
2021/12/16 01:58:09;;;;;;;21.25;6.72;;;8.20;99.90;;;;;;5021248;28;20044;-68
2021/12/16 02:00:56;;;;;;;17.90;6.50;;;8.20;99.90;;;;;;5023390;28;20125;-65
2021/12/16 02:03:37;;;;;;;24.73;7.10;;;8.20;99.90;;;;;;5003105;28;20030;-65
2021/12/16 02:06:12;;;;;;;17.77;6.63;;;8.20;99.90;;;;;;5020170;28;20033;-66
2021/12/16 02:08:39;;;;;;;17.75;5.53;;;8.10;99.90;;;;;;5019475;28;20034;-65
2021/12/16 02:33:17;;;;;;;30.70;7.20;;;7.70;99.90;;;;;;5021721;28;20501;-65
2021/12/16 02:35:58;;;;;;;19.52;7.22;;;7.60;99.90;;;;;;5019490;28;20030;-65
2021/12/16 02:38:27;;;;;;;21.38;7.32;;;7.60;99.90;;;;;;5019317;28;20034;-65
2021/12/16 02:40:53;;;;;;;23.30;7.65;;;7.60;99.90;;;;;;5002476;28;20112;-65
2021/12/16 02:48:35;;;;;;;25.25;8.13;;;7.50;99.90;;;;;;5021709;28;20044;-66
2021/12/16 02:51:06;;;;;;;46.08;9.73;;;7.50;99.90;;;;;;5019729;28;20034;-64
2021/12/16 02:53:33;;;;;;;46.25;9.98;;;7.50;99.90;;;;;;5004337;28;20048;-65
2021/12/16 02:55:59;;;;;;;63.60;10.20;;;7.50;99.90;;;;;;5019542;28;20402;-65
2021/12/16 02:58:25;;;;;;;58.90;9.60;;;7.50;99.90;;;;;;5021356;28;20173;-64
2021/12/16 03:01:02;;;;;;;66.72;9.73;;;7.50;99.90;;;;;;5020658;28;20485;-68
2021/12/16 03:03:28;;;;;;;53.30;9.07;;;7.50;99.90;;;;;;5022094;28;20069;-67
2021/12/16 03:05:55;;;;;;;109.55;12.45;;;7.50;99.90;;;;;;5020292;28;20366;-66
2021/12/16 03:08:21;;;;;;;42.03;7.38;;;7.60;99.90;;;;;;5020508;28;20033;-64
2021/12/16 03:13:44;;;;;;;51.00;8.00;;;7.50;99.90;;;;;;5021422;28;20040;-65
2021/12/16 03:16:20;;;;;;;29.77;7.05;;;7.50;99.90;;;;;;5018941;28;20034;-65
2021/12/16 03:21:23;;;;;;;34.85;5.90;;;7.50;99.90;;;;;;5021255;28;20053;-64
2021/12/16 03:29:59;;;;;;;33.08;6.20;;;7.40;99.90;;;;;;5019322;28;20053;-65
2021/12/16 03:33:11;;;;;;;47.53;7.22;;;7.40;99.90;;;;;;5021789;28;20140;-65
2021/12/16 03:35:03;;;;;;;33.78;5.90;;;7.40;99.90;;;;;;5008130;28;20066;-64
2021/12/16 03:37:30;;;;;;;52.10;6.95;;;7.40;99.90;;;;;;5019708;28;20408;-65
2021/12/16 03:40:12;;;;;;;52.50;6.72;;;7.40;99.90;;;;;;5019252;28;20041;-65
2021/12/16 03:42:42;;;;;;;22.27;5.30;;;7.40;99.90;;;;;;5019230;28;20481;-66
2021/12/16 03:46:25;;;;;;;29.35;5.35;;;7.30;99.90;;;;;;5021384;28;20060;-66
2021/12/16 03:48:06;;;;;;;23.73;5.15;;;7.30;99.90;;;;;;5021070;28;20061;-65
2021/12/16 03:50:33;;;;;;;54.83;7.13;;;7.20;99.90;;;;;;5000541;28;20073;-63
2021/12/16 03:52:59;;;;;;;38.88;6.38;;;7.20;99.90;;;;;;5021275;28;20041;-64
2021/12/16 03:55:25;;;;;;;20.45;4.97;;;7.20;99.90;;;;;;5018513;28;20048;-65
2021/12/16 03:57:51;;;;;;;33.00;5.80;;;7.10;99.90;;;;;;5021033;28;20061;-64
2021/12/16 04:00:22;;;;;;;37.75;5.10;;;7.10;99.90;;;;;;5019183;28;20048;-64
2021/12/16 04:02:48;;;;;;;36.28;5.88;;;7.10;99.90;;;;;;5020851;28;20225;-64
2021/12/16 04:05:16;;;;;;;45.28;6.00;;;7.00;99.90;;;;;;5019975;28;20099;-66
2021/12/16 04:07:42;;;;;;;27.33;5.05;;;7.00;99.90;;;;;;5001782;28;20087;-64
2021/12/16 04:10:13;;;;;;;22.75;4.85;;;7.00;99.90;;;;;;5020577;28;20444;-64
2021/12/16 04:12:39;;;;;;;;;;;7.00;99.90;;;;;;5019155;28;20371;-64
2021/12/16 04:15:07;;;;;;;42.83;5.65;;;7.00;99.90;;;;;;5025107;28;19919;-65
2021/12/16 04:17:35;;;;;;;47.20;5.22;;;6.90;99.90;;;;;;5017800;28;20801;-65
2021/12/16 04:20:04;;;;;;;48.60;5.70;;;6.90;99.90;;;;;;5018846;28;20481;-65
2021/12/16 04:22:36;;;;;;;55.33;5.32;;;6.90;99.90;;;;;;5026946;28;20133;-64
2021/12/16 04:25:07;;;;;;;54.15;5.38;;;6.90;99.90;;;;;;5017751;28;20042;-64
2021/12/16 04:27:33;;;;;;;26.45;4.60;;;6.90;99.90;;;;;;5017816;28;20045;-65
2021/12/16 04:29:59;;;;;;;37.28;5.20;;;6.90;99.90;;;;;;5017126;28;20037;-65
2021/12/16 04:32:25;;;;;;;27.90;4.30;;;6.80;99.90;;;;;;5020327;28;20047;-65
2021/12/16 04:34:51;;;;;;;25.20;4.68;;;6.80;99.90;;;;;;5019015;28;20373;-68
2021/12/16 04:37:17;;;;;;;31.77;5.32;;;6.70;99.90;;;;;;5021489;28;20030;-64
2021/12/16 04:39:44;;;;;;;29.48;4.90;;;6.70;99.90;;;;;;5019977;28;20040;-66
2021/12/16 04:42:12;;;;;;;20.75;4.50;;;6.70;99.90;;;;;;5018836;28;20543;-66
2021/12/16 04:44:40;;;;;;;20.15;4.60;;;6.70;99.90;;;;;;5020296;28;20037;-66
2021/12/16 04:47:07;;;;;;;23.40;4.90;;;6.70;99.90;;;;;;4999814;28;20379;-63
2021/12/16 04:49:33;;;;;;;21.30;4.25;;;6.70;99.90;;;;;;5020937;28;20057;-66
2021/12/16 04:52:05;;;;;;;21.00;3.95;;;6.70;99.90;;;;;;5021322;28;20068;-65
2021/12/16 04:54:30;;;;;;;24.20;4.28;;;6.70;99.90;;;;;;5017476;28;20052;-64
2021/12/16 04:56:57;;;;;;;30.40;4.22;;;6.60;99.90;;;;;;5020472;28;20382;-64
2021/12/16 04:59:24;;;;;;;29.27;3.83;;;6.60;99.90;;;;;;5017702;28;20033;-64
2021/12/16 05:01:54;;;;;;;17.27;3.92;;;6.60;99.90;;;;;;5020549;28;20034;-65
2021/12/16 05:04:20;;;;;;;15.95;3.40;;;6.50;99.90;;;;;;5021951;28;20029;-64
2021/12/16 05:06:45;;;;;;;32.97;3.72;;;6.50;99.90;;;;;;5023437;28;20026;-65
2021/12/16 05:09:22;;;;;;;30.88;4.32;;;6.40;99.90;;;;;;5023288;28;23241;-65
2021/12/16 05:11:48;;;;;;;24.98;4.18;;;6.30;99.90;;;;;;5023637;28;20035;-65
2021/12/16 05:14:19;;;;;;;21.23;4.35;;;6.40;99.90;;;;;;5022327;28;20060;-66
2021/12/16 05:16:44;;;;;;;27.13;3.67;;;6.30;99.90;;;;;;5023240;28;20042;-66
2021/12/16 05:19:10;;;;;;;21.52;3.70;;;6.30;99.90;;;;;;5004836;28;20059;-65
2021/12/16 05:21:58;;;;;;;27.75;3.97;;;6.30;99.90;;;;;;5022440;28;20037;-64
2021/12/16 05:24:28;;;;;;;12.00;3.65;;;6.20;99.90;;;;;;5022887;28;20037;-65
2021/12/16 05:27:01;;;;;;;26.60;3.78;;;6.20;99.90;;;;;;5020102;28;20042;-65
2021/12/16 05:29:27;;;;;;;19.25;3.78;;;6.20;99.90;;;;;;5020584;28;20046;-71
2021/12/16 05:31:53;;;;;;;11.48;3.70;;;6.20;99.90;;;;;;5023286;28;20034;-66
2021/12/16 05:34:20;;;;;;;16.35;3.45;;;6.10;99.90;;;;;;5020225;28;20030;-64
2021/12/16 05:36:46;;;;;;;19.98;4.03;;;6.10;99.90;;;;;;5023572;28;20516;-64
2021/12/16 05:39:14;;;;;;;17.42;3.50;;;6.10;99.90;;;;;;5022255;28;20034;-65
2021/12/16 05:41:40;;;;;;;13.32;4.00;;;6.10;99.90;;;;;;5022878;28;20060;-65
2021/12/16 05:44:05;;;;;;;14.57;3.65;;;6.00;99.90;;;;;;5019482;28;20085;-65
2021/12/16 05:46:31;;;;;;;11.77;3.40;;;5.90;99.90;;;;;;5021438;28;20056;-65
2021/12/16 05:48:59;;;;;;;16.85;3.42;;;5.90;99.90;;;;;;5002238;28;20029;-64
2021/12/16 05:51:32;;;;;;;14.73;3.80;;;5.90;99.90;;;;;;5015962;28;20097;-65
2021/12/16 05:54:00;;;;;;;18.67;3.63;;;5.80;99.90;;;;;;5016848;28;20022;-65
2021/12/16 05:56:25;;;;;;;18.25;4.15;;;5.80;99.90;;;;;;5002155;28;20029;-64
2021/12/16 05:58:52;;;;;;;7.55;3.30;;;5.80;99.90;;;;;;5024263;28;20026;-64
2021/12/16 06:01:21;;;;;;;19.90;3.50;;;5.80;99.90;;;;;;5021941;28;20040;-65
2021/12/16 06:03:48;;;;;;;11.20;4.05;;;5.70;99.90;;;;;;5024523;28;20049;-64
2021/12/16 06:06:15;;;;;;;21.70;3.88;;;5.70;99.90;;;;;;5022266;28;20064;-65
2021/12/16 06:08:40;;;;;;;6.00;3.22;;;5.70;99.90;;;;;;5000361;28;20072;-64
2021/12/16 06:11:19;;;;;;;14.02;3.22;;;5.70;99.90;;;;;;5018852;28;20033;-64
2021/12/16 06:27:48;;;;;;;28.88;3.63;;;5.60;99.90;;;;;;5017274;28;20072;-66
2021/12/16 06:30:18;;;;;;;17.42;3.53;;;5.60;99.90;;;;;;4996140;28;20379;-65
2021/12/16 06:32:44;;;;;;;31.77;3.50;;;5.60;99.90;;;;;;5015730;28;20034;-64
2021/12/16 06:35:11;;;;;;;28.35;3.38;;;5.60;99.90;;;;;;5016378;28;20079;-64
2021/12/16 06:37:37;;;;;;;14.77;3.35;;;5.60;99.90;;;;;;5015307;28;20038;-64
2021/12/16 06:40:06;;;;;;;26.92;3.55;;;5.60;99.90;;;;;;5015109;28;20148;-64
2021/12/16 06:42:34;;;;;;;22.90;2.78;;;5.50;99.90;;;;;;5018281;28;20485;-66
2021/12/16 06:45:07;;;;;;;35.17;3.50;;;5.50;99.90;;;;;;5018113;28;20037;-65
2021/12/16 06:47:42;;;;;;;20.92;3.85;;;5.50;99.90;;;;;;5013243;28;20029;-66
2021/12/16 06:50:13;;;;;;;13.38;2.90;;;5.50;99.90;;;;;;5016429;28;20034;-65
2021/12/16 06:52:45;;;;;;;15.75;2.75;;;5.40;99.90;;;;;;5017860;28;20037;-65
2021/12/16 06:55:19;;;;;;;21.10;2.90;;;5.40;99.90;;;;;;5018925;28;20034;-66
2021/12/16 06:57:52;;;;;;;9.93;2.80;;;5.40;99.90;;;;;;5018676;28;20056;-64
2021/12/16 07:00:38;;;;;;;7.57;2.53;;;5.50;99.90;;;;;;4999969;28;20106;-65
2021/12/16 07:03:16;;;;;;;15.20;2.17;;;5.50;99.90;;;;;;5019670;28;20108;-65
2021/12/16 07:05:42;;;;;;;11.88;2.85;;;5.40;99.90;;;;;;5017579;28;20068;-66
2021/12/16 07:08:12;;;;;;;11.02;2.85;;;5.40;99.90;;;;;;5013731;28;20030;-66
2021/12/16 07:10:38;;;;;;;9.43;2.67;;;5.40;99.90;;;;;;5014256;28;20042;-66
2021/12/16 07:13:07;;;;;;;10.10;3.20;;;5.40;99.90;;;;;;5012832;28;20568;-66
2021/12/16 07:15:36;;;;;;;8.05;2.50;;;5.40;99.90;;;;;;5010889;28;20886;-65
2021/12/16 07:18:02;;;;;;;12.15;2.53;;;5.40;99.90;;;;;;5016925;28;20046;-65
2021/12/16 07:20:31;;;;;;;8.40;2.78;;;5.30;99.90;;;;;;5013832;28;20183;-64
2021/12/16 07:22:59;;;;;;;8.27;3.13;;;5.30;99.90;;;;;;5014342;28;20053;-64
2021/12/16 07:25:24;;;;;;;7.57;2.90;;;5.30;99.90;;;;;;5016363;28;20401;-64
2021/12/16 07:27:51;;;;;;;6.00;2.75;;;5.30;99.90;;;;;;5014756;28;20251;-64
2021/12/16 07:30:20;;;;;;;6.50;2.85;;;5.30;99.90;;;;;;5014740;28;20037;-64
2021/12/16 07:32:46;;;;;;;6.32;2.90;;;5.30;99.90;;;;;;4997729;28;20033;-65
2021/12/16 07:35:15;;;;;;;5.38;2.65;;;5.30;99.90;;;;;;5014481;28;20048;-64
2021/12/16 07:37:42;;;;;;;9.20;3.05;;;5.30;99.90;;;;;;5019359;28;20460;-63
2021/12/16 07:40:11;;;;;;;9.05;3.53;;;5.30;99.90;;;;;;5014392;28;20399;-65
2021/12/16 07:42:47;;;;;;;10.48;2.92;;;5.30;99.90;;;;;;5016240;28;20033;-64
2021/12/16 07:45:17;;;;;;;11.20;3.15;;;5.30;99.90;;;;;;5000535;28;20573;-64
2021/12/16 07:47:43;;;;;;;6.93;2.63;;;5.30;99.90;;;;;;5013187;28;20041;-64
2021/12/16 07:50:11;;;;;;;8.48;3.30;;;5.30;99.90;;;;;;4993581;28;20123;-64
2021/12/16 07:52:37;;;;;;;10.40;3.33;;;5.30;99.90;;;;;;5013339;28;20042;-66
2021/12/16 07:55:04;;;;;;;11.82;3.40;;;5.30;99.90;;;;;;5012594;28;20052;-70
2021/12/16 07:57:30;;;;;;;12.18;3.58;;;5.30;99.90;;;;;;5013710;28;20041;-65
2021/12/16 07:59:56;;;;;;;14.13;3.47;;;5.30;99.90;;;;;;5016563;28;20079;-64
2021/12/16 08:02:22;;;;;;;19.42;3.25;;;5.30;99.90;;;;;;5015277;28;20033;-64
2021/12/16 08:04:49;;;;;;;11.88;4.05;;;5.30;99.90;;;;;;5011901;28;20552;-64
2021/12/16 08:07:18;;;;;;;11.32;2.72;;;5.30;99.90;;;;;;5016680;28;20038;-64
2021/12/16 08:09:49;;;;;;;7.63;2.80;;;5.30;99.90;;;;;;5016630;28;20551;-64
2021/12/16 08:12:15;;;;;;;;;;;5.40;99.90;;;;;;5011326;28;20764;-65
2021/12/16 08:14:43;;;;;;;11.50;3.13;;;5.40;99.90;;;;;;4995461;28;19928;-64
2021/12/16 08:17:09;;;;;;;9.48;2.63;;;5.40;99.90;;;;;;5016653;28;20129;-64
2021/12/16 08:19:35;;;;;;;11.70;2.92;;;5.40;99.90;;;;;;5015089;28;20109;-65
2021/12/16 08:22:00;;;;;;;6.10;2.70;;;5.40;99.90;;;;;;5008970;28;20040;-66
2021/12/16 08:24:26;;;;;;;6.72;2.75;;;5.50;99.90;;;;;;5014592;28;20038;-64
2021/12/16 08:26:53;;;;;;;11.20;3.72;;;5.50;99.90;;;;;;4996932;28;20030;-64
2021/12/16 08:29:20;;;;;;;10.55;3.47;;;5.50;99.90;;;;;;5009660;28;20025;-67
2021/12/16 08:31:47;;;;;;;13.88;3.20;;;5.50;99.90;;;;;;5013318;28;20497;-64
2021/12/16 08:34:13;;;;;;;16.98;3.22;;;5.50;99.90;;;;;;5014626;28;20571;-64
2021/12/16 08:36:39;;;;;;;17.55;2.88;;;5.60;99.90;;;;;;5014236;28;20477;-65
2021/12/16 08:39:08;;;;;;;17.05;3.45;;;5.60;99.90;;;;;;5016569;28;20057;-64
2021/12/16 08:41:39;;;;;;;25.55;3.80;;;5.60;99.90;;;;;;5014448;28;20034;-65
2021/12/16 08:44:05;;;;;;;24.13;4.63;;;5.70;99.90;;;;;;5012934;28;20554;-64
2021/12/16 08:46:35;;;;;;;18.48;3.08;;;5.70;99.90;;;;;;5013227;28;20122;-64
2021/12/16 08:49:01;;;;;;;14.37;3.63;;;5.70;99.90;;;;;;5014232;28;20089;-66
2021/12/16 08:51:31;;;;;;;23.38;3.05;;;5.70;99.90;;;;;;5015867;28;20034;-65
2021/12/16 08:53:57;;;;;;;7.65;3.17;;;5.80;99.90;;;;;;5018287;28;20049;-67
2021/12/16 08:56:25;;;;;;;17.50;3.40;;;5.80;99.90;;;;;;5012299;28;20021;-65
2021/12/16 08:58:51;;;;;;;8.85;3.22;;;5.80;99.90;;;;;;4999326;28;20037;-64
2021/12/16 09:01:20;;;;;;;9.90;2.95;;;5.90;99.90;;;;;;5015067;28;20036;-65
2021/12/16 09:03:46;;;;;;;13.10;3.00;;;5.90;99.90;;;;;;5000458;28;20044;-65
2021/12/16 09:06:12;;;;;;;13.15;3.20;;;5.90;99.90;;;;;;4998816;28;20032;-64
2021/12/16 09:08:38;;;;;;;10.27;3.65;;;6.00;99.90;;;;;;5016389;28;20037;-64
2021/12/16 09:11:08;;;;;;;9.90;3.38;;;6.00;99.90;;;;;;5017276;28;20479;-68
2021/12/16 09:13:37;;;;;;;11.60;3.67;;;6.10;99.90;;;;;;4990143;28;20775;-65
2021/12/16 09:16:06;;;;;;;10.43;3.33;;;6.20;99.90;;;;;;5012633;28;20490;-64
2021/12/16 09:18:34;;;;;;;8.35;3.08;;;6.20;99.90;;;;;;5014718;28;20037;-65
2021/12/16 09:21:03;;;;;;;8.85;3.50;;;6.20;99.90;;;;;;5012328;28;20034;-65
2021/12/16 09:23:29;;;;;;;10.23;3.97;;;6.30;99.90;;;;;;5010321;28;20065;-65
2021/12/16 09:25:55;;;;;;;8.80;3.67;;;6.50;99.90;;;;;;5015432;28;20478;-65
2021/12/16 09:28:22;;;;;;;9.10;3.95;;;6.50;99.90;;;;;;5012516;28;20030;-65
2021/12/16 09:30:49;;;;;;;8.85;3.45;;;6.60;99.90;;;;;;5013241;28;20108;-65
2021/12/16 09:33:18;;;;;;;8.68;3.30;;;6.70;99.90;;;;;;5011269;28;20053;-66
2021/12/16 09:35:48;;;;;;;6.93;3.50;;;6.80;99.90;;;;;;5025606;28;20033;-65
2021/12/16 09:38:16;;;;;;;8.38;3.75;;;6.90;99.90;;;;;;5016513;28;20385;-71
2021/12/16 09:40:49;;;;;;;7.70;3.97;;;6.90;99.90;;;;;;5013839;28;20470;-64
2021/12/16 09:43:17;;;;;;;8.80;3.10;;;7.10;99.90;;;;;;5024214;28;20923;-65
2021/12/16 09:45:43;;;;;;;6.60;3.25;;;7.20;99.90;;;;;;5012799;28;20129;-64
2021/12/16 09:48:09;;;;;;;6.43;2.95;;;7.20;99.90;;;;;;5014996;28;20112;-65
2021/12/16 09:50:36;;;;;;;10.88;3.25;;;7.30;99.90;;;;;;5017938;28;20137;-66
2021/12/16 09:53:03;;;;;;;8.63;3.35;;;7.40;99.90;;;;;;5019870;28;20045;-64
2021/12/16 09:55:29;;;;;;;7.40;3.30;;;7.50;99.90;;;;;;5000928;28;20122;-66
2021/12/16 09:57:55;;;;;;;9.60;3.05;;;7.60;99.90;;;;;;5016287;28;20034;-65
2021/12/16 10:00:24;;;;;;;7.70;3.75;;;7.60;99.90;;;;;;5020271;28;20501;-65
2021/12/16 10:02:51;;;;;;;12.55;3.67;;;7.70;99.90;;;;;;5016258;28;20493;-66
2021/12/16 10:05:17;;;;;;;8.30;4.00;;;7.70;99.90;;;;;;4995147;28;20036;-64
2021/12/16 10:07:43;;;;;;;9.50;4.00;;;7.80;99.90;;;;;;5026614;28;20133;-65
2021/12/16 10:10:23;;;;;;;10.30;3.30;;;7.90;99.90;;;;;;5019734;28;20124;-65
2021/12/16 10:12:51;;;;;;;8.15;4.45;;;8.00;99.90;;;;;;5017128;28;20033;-66
2021/12/16 10:18:04;;;;;;;11.05;4.10;;;8.10;99.90;;;;;;5019432;28;20069;-65
2021/12/16 10:20:34;;;;;;;11.60;4.80;;;8.20;99.90;;;;;;5000120;28;20508;-65
2021/12/16 10:23:18;;;;;;;5.90;3.53;;;8.20;99.90;;;;;;4997500;28;20029;-65
2021/12/16 10:25:59;;;;;;;10.90;3.47;;;8.30;99.90;;;;;;5016778;28;20289;-66
2021/12/16 10:28:49;;;;;;;8.85;3.50;;;8.30;99.90;;;;;;4982492;28;20029;-64
2021/12/16 10:31:34;;;;;;;11.88;3.63;;;8.40;99.90;;;;;;4997374;28;20042;-66
2021/12/16 10:34:07;;;;;;;6.07;3.25;;;8.40;99.90;;;;;;5018058;28;20034;-67
2021/12/16 10:36:45;;;;;;;11.90;3.85;;;8.50;99.90;;;;;;4991489;28;20033;-65
2021/12/16 10:39:28;;;;;;;12.00;4.28;;;8.50;99.90;;;;;;4988986;28;20041;-65
2021/12/16 10:42:07;;;;;;;6.25;3.67;;;8.60;99.90;;;;;;5020298;28;20053;-67
2021/12/16 10:44:37;;;;;;;9.38;3.67;;;8.60;99.90;;;;;;5009604;28;20064;-66
2021/12/16 10:47:14;;;;;;;12.88;4.43;;;8.60;99.90;;;;;;5007046;28;20034;-64
2021/12/16 10:49:52;;;;;;;10.90;5.28;;;8.70;99.90;;;;;;4988199;28;20033;-65
2021/12/16 10:52:33;;;;;;;9.48;4.30;;;8.80;99.90;;;;;;4985909;28;20569;-64
2021/12/16 10:55:06;;;;;;;8.68;4.22;;;9.00;99.90;;;;;;4982892;28;20056;-69
2021/12/16 10:57:40;;;;;;;8.23;3.95;;;9.30;99.90;;;;;;4991018;28;20548;-66
2021/12/16 11:00:13;;;;;;;10.32;4.38;;;9.60;99.90;;;;;;4991597;28;20525;-66
2021/12/16 11:02:48;;;;;;;11.88;4.70;;;9.80;99.90;;;;;;4992161;28;20772;-65
2021/12/16 11:05:27;;;;;;;13.20;4.75;;;9.90;99.90;;;;;;5009624;28;20157;-65
2021/12/16 11:07:59;;;;;;;9.80;4.80;;;9.80;99.90;;;;;;4978051;28;20029;-65
2021/12/16 11:10:32;;;;;;;9.18;4.38;;;9.80;99.90;;;;;;4958603;28;20057;-64
2021/12/16 11:13:07;;;;;;;13.45;4.65;;;9.70;99.90;;;;;;5012380;28;20041;-66
2021/12/16 11:15:59;;;;;;;11.50;4.53;;;9.90;99.90;;;;;;4995816;28;20453;-67
2021/12/16 11:18:28;;;;;;;13.50;4.95;;;10.10;99.90;;;;;;5004609;28;20557;-65
2021/12/16 11:21:05;;;;;;;10.35;4.80;;;10.30;99.90;;;;;;5022157;28;20038;-68
2021/12/16 11:23:44;;;;;;;11.45;5.13;;;10.30;99.90;;;;;;4988124;28;20045;-64
2021/12/16 11:26:19;;;;;;;18.63;5.18;;;10.20;99.90;;;;;;5011604;28;20033;-67
2021/12/16 11:28:55;;;;;;;9.30;4.95;;;10.10;99.90;;;;;;4984146;28;20126;-67
2021/12/16 11:31:37;;;;;;;14.93;5.07;;;10.00;99.90;;;;;;4992151;28;20034;-64
2021/12/16 11:34:09;;;;;;;16.35;5.80;;;10.00;99.90;;;;;;5016453;28;20743;-66
2021/12/16 11:36:47;;;;;;;15.10;5.78;;;10.00;99.90;;;;;;4990537;28;20037;-65
2021/12/16 11:39:27;;;;;;;11.90;5.60;;;10.00;99.90;;;;;;4998078;28;20472;-64
2021/12/16 11:42:00;;;;;;;15.30;5.22;;;9.90;99.90;;;;;;5020659;28;20030;-65
2021/12/16 11:44:32;;;;;;;13.60;6.20;;;9.90;99.90;;;;;;4989898;28;20060;-65
2021/12/16 11:47:04;;;;;;;17.52;6.32;;;9.90;99.90;;;;;;5013622;28;20033;-65
2021/12/16 11:49:35;;;;;;;24.63;6.93;;;10.00;99.90;;;;;;5004801;28;20084;-66
2021/12/16 11:52:06;;;;;;;;;;;10.10;99.90;;;;;;5007599;28;20044;-67
2021/12/16 11:54:46;;;;;;;20.58;6.72;;;10.10;99.90;;;;;;4996459;28;19967;-65
2021/12/16 11:57:38;;;;;;;15.43;6.32;;;10.20;99.90;;;;;;5013110;28;20034;-64
2021/12/16 12:00:06;;;;;;;19.25;6.93;;;10.20;99.90;;;;;;4984977;28;20048;-66
2021/12/16 12:02:41;;;;;;;12.02;5.88;;;10.20;99.90;;;;;;5010852;28;20033;-65
2021/12/16 12:05:30;;;;;;;17.25;6.45;;;10.20;99.90;;;;;;4988354;28;20130;-66
2021/12/16 12:07:58;;;;;;;14.95;6.13;;;10.20;99.90;;;;;;4997011;28;20032;-65
2021/12/16 12:10:47;;;;;;;18.23;7.03;;;10.20;99.90;;;;;;4991151;28;20053;-65
2021/12/16 12:13:20;;;;;;;19.55;6.43;;;10.20;99.90;;;;;;4989345;28;20046;-65
2021/12/16 12:16:03;;;;;;;17.75;7.68;;;10.20;99.90;;;;;;4977341;28;20116;-66
2021/12/16 12:18:33;;;;;;;19.23;7.85;;;10.40;99.90;;;;;;4972772;28;20488;-66
2021/12/16 12:21:32;;;;;;;18.08;6.35;;;10.40;99.90;;;;;;4982529;28;20045;-65
2021/12/16 12:24:12;;;;;;;20.42;7.32;;;10.40;99.90;;;;;;4975179;28;20116;-65
2021/12/16 12:27:09;;;;;;;16.13;6.88;;;10.30;99.90;;;;;;5009137;28;20069;-65
2021/12/16 12:29:42;;;;;;;19.33;7.53;;;10.30;99.90;;;;;;5011950;28;20079;-66
2021/12/16 12:32:21;;;;;;;17.13;6.43;;;10.30;99.90;;;;;;5000333;28;20029;-64
2021/12/16 12:34:50;;;;;;;17.65;7.40;;;10.30;99.90;;;;;;5011662;28;20044;-65
2021/12/16 12:37:19;;;;;;;15.13;6.43;;;10.30;99.90;;;;;;5015618;28;20026;-66
2021/12/16 12:39:55;;;;;;;21.23;7.82;;;10.30;99.90;;;;;;5013424;28;20402;-65
2021/12/16 12:42:22;;;;;;;18.90;6.47;;;10.30;99.90;;;;;;5015487;28;20716;-66
2021/12/16 12:44:48;;;;;;;21.00;6.45;;;10.30;99.90;;;;;;5016172;28;20437;-66
2021/12/16 12:47:21;;;;;;;19.95;7.53;;;10.30;99.90;;;;;;5013852;28;20061;-65
2021/12/16 12:49:47;;;;;;;14.43;5.97;;;10.30;99.90;;;;;;5013156;28;20033;-65
2021/12/16 12:52:17;;;;;;;18.02;6.75;;;10.20;99.90;;;;;;5012803;28;20038;-65
2021/12/16 12:54:47;;;;;;;18.67;6.60;;;10.30;99.90;;;;;;5017072;28;20125;-65
2021/12/16 12:57:23;;;;;;;21.58;6.22;;;10.20;99.90;;;;;;5016584;28;20120;-65
2021/12/16 12:59:49;;;;;;;16.33;6.63;;;10.30;99.90;;;;;;5011616;28;20030;-65
2021/12/16 13:02:28;;;;;;;14.88;5.88;;;10.20;99.90;;;;;;5013961;28;20537;-65
2021/12/16 13:04:56;;;;;;;14.40;5.43;;;10.20;99.90;;;;;;4997477;28;20065;-64
2021/12/16 13:07:40;;;;;;;18.88;5.47;;;10.30;99.90;;;;;;5013113;28;20497;-65
2021/12/16 13:10:35;;;;;;;14.00;5.70;;;10.30;99.90;;;;;;5010808;28;20077;-64
2021/12/16 13:27:42;;;;;;;13.95;5.68;;;10.20;99.90;;;;;;5018169;28;20004;-66
2021/12/16 13:32:40;;;;;;;16.60;6.20;;;10.20;99.90;;;;;;5018688;28;20401;-65
2021/12/16 13:35:21;;;;;;;15.15;5.60;;;10.20;99.90;;;;;;5016829;28;20123;-66
2021/12/16 13:37:50;;;;;;;14.80;5.38;;;10.20;99.90;;;;;;5013287;28;20124;-66
2021/12/16 13:40:25;;;;;;;13.27;5.13;;;10.20;99.90;;;;;;5018614;28;20115;-68
2021/12/16 13:43:12;;;;;;;18.20;5.57;;;10.20;99.90;;;;;;5016875;28;20041;-65
2021/12/16 13:46:01;;;;;;;13.48;6.22;;;10.10;99.90;;;;;;5014003;28;20462;-65
2021/12/16 14:03:23;;;;;;;14.80;5.18;;;10.10;99.90;;;;;;5020194;28;20026;-65
2021/12/16 14:08:44;;;;;;;13.98;5.70;;;10.10;99.90;;;;;;5015024;28;20489;-64
2021/12/16 14:12:35;;;;;;;8.88;4.47;;;10.10;99.90;;;;;;5000063;28;20078;-64
2021/12/16 14:17:30;;;;;;;12.02;5.75;;;10.00;99.90;;;;;;5017194;28;20034;-65
2021/12/16 14:23:13;;;;;;;12.60;5.30;;;10.00;99.90;;;;;;5013659;28;20037;-65
2021/12/16 14:34:49;;;;;;;16.30;4.90;;;10.00;99.90;;;;;;5016610;28;20111;-64
2021/12/16 14:45:14;;;;;;;12.82;4.25;;;10.00;99.90;;;;;;5013270;28;20034;-65
2021/12/16 14:50:11;;;;;;;13.23;5.32;;;9.90;99.90;;;;;;5014726;28;20045;-65
2021/12/16 14:52:37;;;;;;;13.55;4.57;;;9.80;99.90;;;;;;5012516;28;20045;-65
2021/12/16 14:55:10;;;;;;;21.40;5.43;;;9.80;99.90;;;;;;5015832;28;20038;-66
2021/12/16 14:57:43;;;;;;;19.63;5.45;;;9.70;99.90;;;;;;4999018;28;20033;-65
2021/12/16 15:00:15;;;;;;;18.88;5.90;;;9.70;99.90;;;;;;5016941;28;20069;-64
2021/12/16 15:02:42;;;;;;;14.25;5.35;;;9.70;99.90;;;;;;5016962;28;20041;-65
2021/12/16 15:05:44;;;;;;;14.20;5.30;;;9.60;99.90;;;;;;5012551;28;20163;-66
2021/12/16 15:08:33;;;;;;;16.00;4.93;;;9.60;99.90;;;;;;5002591;28;20104;-64
2021/12/16 15:11:01;;;;;;;25.80;6.20;;;9.60;99.90;;;;;;5015925;28;20034;-66
2021/12/16 15:13:37;;;;;;;15.50;6.20;;;9.50;99.90;;;;;;4996175;28;20029;-65
2021/12/16 15:40:31;;;;;;;15.00;6.40;;;9.10;99.90;;;;;;5012958;28;20033;-65
2021/12/16 15:43:00;;;;;;;15.60;6.38;;;9.10;99.90;;;;;;5016543;28;20037;-64
2021/12/16 15:45:34;;;;;;;19.02;5.60;;;9.00;99.90;;;;;;5015396;28;20025;-64
2021/12/16 15:48:11;;;;;;;30.75;8.20;;;9.00;99.90;;;;;;4995094;28;20500;-64
2021/12/16 15:50:43;;;;;;;15.15;6.07;;;9.00;99.90;;;;;;5011735;28;20536;-66
2021/12/16 15:53:13;;;;;;;21.92;5.88;;;8.90;99.90;;;;;;5019660;28;20037;-65
2021/12/16 15:55:49;;;;;;;15.93;5.63;;;8.90;99.90;;;;;;5019574;28;20044;-65
2021/12/16 15:58:18;;;;;;;13.45;5.88;;;8.80;99.90;;;;;;5015667;28;20034;-65
2021/12/16 16:00:48;;;;;;;18.55;6.55;;;8.80;99.90;;;;;;5011167;28;20045;-65
2021/12/16 16:03:16;;;;;;;17.38;4.75;;;8.80;99.90;;;;;;5016986;28;20128;-66
2021/12/16 16:05:48;;;;;;;18.77;6.18;;;8.80;99.90;;;;;;5019257;28;20120;-66
2021/12/16 16:08:16;;;;;;;14.23;5.28;;;8.70;99.90;;;;;;5015491;28;20454;-65
2021/12/16 16:10:44;;;;;;;16.33;6.07;;;8.70;99.90;;;;;;5019526;28;20033;-65
2021/12/16 16:13:25;;;;;;;16.38;6.38;;;8.70;99.90;;;;;;5017303;28;20048;-66
2021/12/16 16:15:52;;;;;;;;;;;8.70;99.90;;;;;;5017639;28;20064;-66
2021/12/16 16:18:34;;;;;;;17.70;6.25;;;8.60;99.90;;;;;;5016941;28;19918;-64
2021/12/16 16:21:00;;;;;;;16.20;5.88;;;8.60;99.90;;;;;;5014823;28;20049;-65
2021/12/16 16:23:27;;;;;;;18.98;6.57;;;8.60;99.90;;;;;;5018546;28;20072;-65
2021/12/16 16:25:53;;;;;;;27.27;7.13;;;8.60;99.90;;;;;;5014859;28;20117;-65
2021/12/16 16:28:21;;;;;;;13.45;6.30;;;8.60;99.90;;;;;;5015759;28;20130;-65
2021/12/16 16:30:50;;;;;;;15.73;5.97;;;8.60;99.90;;;;;;5018971;28;20551;-64
2021/12/16 16:33:19;;;;;;;17.95;6.20;;;8.60;99.90;;;;;;4997002;28;20048;-65
2021/12/16 16:36:00;;;;;;;14.90;5.70;;;8.50;99.90;;;;;;5015031;28;20041;-66
2021/12/16 16:38:33;;;;;;;17.83;6.28;;;8.50;99.90;;;;;;5018502;28;20033;-65
2021/12/16 16:41:02;;;;;;;18.73;7.07;;;8.50;99.90;;;;;;5013224;28;20080;-65
2021/12/16 16:43:32;;;;;;;15.82;5.75;;;8.40;99.90;;;;;;5014080;28;20041;-66
2021/12/16 16:46:15;;;;;;;16.20;6.22;;;8.40;99.90;;;;;;5012736;28;20041;-66
2021/12/16 16:51:29;;;;;;;14.60;6.13;;;8.30;99.90;;;;;;5016014;28;20394;-65
2021/12/16 16:53:57;;;;;;;20.25;6.20;;;8.20;99.90;;;;;;5018209;28;20041;-68